Weather observations for the past three days for
San Jose / Reid / Hillv
Imperial (Metric)
Date Time (pdt) Wind (mph) Vis. (mi.) Weather Sky Cond. Temperature (ºF) Relative Humidity Wind Chill (°F) Heat Index (°F) Pressure Precipitation (in)
Air Dwpt 6 hour altimeter (in) sea level (mb) 1 hr 3 hr 6 hr
Max. Min.
01 18:47 NW 10 G 21 10.00 A Few Clouds FEW060 69.8 48.2 46% 30 0.0
01 17:47 N 15 10.00 Partly Cloudy SCT060 71.6 48.2 44% 29.99 0.0
01 16:47 NW 15 10.00 Partly Cloudy SCT060 73.4 48.2 41% 29.99 0.0
01 15:47 NW 14 G 20 10.00 Partly Cloudy SCT060 75.2 48.2 39% 77 29.98 0.0
01 14:47 W 10 10.00 Partly Cloudy SCT040 75.2 48.2 39% 77 29.99 0.0
01 13:50 SW 7 10.00 Partly Cloudy SCT040 73.4 46.4 38% 30.01 0.0
01 12:47 N 3 10.00 Partly Cloudy SCT040 71.6 46.4 41% 30.02 0.0
01 11:47 Calm 10.00 Partly Cloudy SCT040 69.8 46.4 43% 30.04 0.0
01 10:47 Vrbl 6 10.00 Mostly Cloudy BKN040 66.2 46.4 49% 30.04 0.0
01 09:47 Calm 10.00 Mostly Cloudy BKN040 64.4 46.4 52% 30.03 0.0
01 08:47 Calm 10.00 Mostly Cloudy BKN020 62.6 46.4 56% 30.02 0.0
01 07:47 SW 5 10.00 Mostly Cloudy BKN030 62.6 46.4 56% 30.01 0.0
01 06:55 W 6 10.00 Overcast OVC030 62.6 46.4 56% 29.99 0.0
31 21:55 NW 8 10.00 Clear SKC 62.6 51.8 68% 29.97 0.0
31 20:47 N 10 10.00 Clear SKC 62.6 53.6 73% 29.95 0.0
31 19:47 N 12 10.00 Clear SKC 64.4 53.6 68% 29.93 0.0
31 18:55 NW 13 10.00 Clear SKC 64.4 51.8 64% 29.92 0.0
31 17:47 NW 13 10.00 Clear SKC 69.8 53.6 57% 29.92 0.0
31 16:47 NW 13 10.00 Clear SKC 71.6 53.6 53% 29.92 0.0
31 15:47 NW 10 G 17 10.00 Clear SKC 71.6 53.6 53% 29.93 0.0
31 14:47 NW 10 G 17 10.00 Clear SKC 71.6 53.6 53% 29.94 0.0
31 13:51 NW 8 10.00 A Few Clouds FEW025 71.6 51.8 50% 29.96 0.0
31 12:47 Calm 10.00 Partly Cloudy SCT025 66.2 57.2 73% 29.98 0.0
31 11:47 E 3 10.00 Mostly Cloudy BKN025 64.4 53.6 68% 29.99 0.0
31 10:47 Calm 10.00 Overcast OVC015 60.8 51.8 72% 30 0.0
31 09:47 S 5 9.00 Overcast OVC015 60.8 51.8 72% 29.98 0.0
31 08:47 S 5 8.00 Overcast OVC015 59 53.6 82% 29.98 0.0
31 07:47 Calm 8.00 Overcast OVC015 57.2 53.6 88% 29.97 0.0
31 06:55 S 6 8.00 Overcast OVC015 57.2 51.8 82% 29.95 0.0
30 21:57 W 5 10.00 Clear SKC 62.6 53.6 73% 29.93 0.0
30 20:47 NW 7 10.00 Clear SKC 64.4 55.4 73% 29.91 0.0
30 19:47 NW 7 10.00 Clear SKC 68 55.4 64% 29.89 0.0
30 17:47 NW 13 10.00 Clear SKC 75.2 55.4 50% 78 29.88 0.0
30 15:47 NW 10 10.00 Clear SKC 78.8 55.4 45% 79 29.98 0.0
30 13:47 Calm 10.00 Clear SKC 78.8 51.8 39% 79 29.93 0.0
30 12:47 NW 7 10.00 Clear SKC 75.2 51.8 44% 78 29.94 0.0
30 11:47 NW 6 10.00 Clear SKC 73.4 50 44% 29.95 0.0
30 10:55 Calm 10.00 Clear SKC 69.8 50 50% 29.97 0.0
30 09:51 Calm 10.00 Clear SKC 66.2 50 56% 29.97 0.0
30 08:50 Calm 10.00 Clear SKC 62.6 48.2 60% 29.98 0.0
30 07:47 Calm 10.00 Clear SKC 57.2 48.2 72% 29.98 0.0
30 06:55 Calm 10.00 Clear SKC 55.4 48.2 77% 29.97 0.0
29 21:57 W 5 10.00 Clear SKC 62.6 51.8 68% 29.97 0.0
29 20:57 NW 8 10.00 Clear SKC 66.2 53.6 64% 29.96 0.0
29 19:47 NW 8 10.00 Clear SKC 69.8 51.8 53% 29.94 0.0
Date Time (pdt) Wind (mph) Vis. (mi.) Weather Sky Cond. Air Dwpt Max. Min. Relative Humidity Wind Chill (°F) Heat Index (°F) altimeter (in) sea level (mb) 1 hr 3 hr 6 hr
6 hour
Temperature (ºF) Pressure Precipitation (in)